createdAt,value
2019-06-26T00:01:20.044Z,22.80
2019-06-26T00:03:49.122Z,22.80
2019-06-26T00:06:18.312Z,22.80
2019-06-26T00:08:47.450Z,22.70
2019-06-26T00:11:16.934Z,22.70
2019-06-26T00:13:46.050Z,22.70
2019-06-26T00:16:15.161Z,22.60
2019-06-26T00:18:44.363Z,22.60
2019-06-26T00:21:13.387Z,22.60
2019-06-26T00:23:42.394Z,22.50
2019-06-26T00:26:11.554Z,22.50
2019-06-26T00:28:40.764Z,22.50
2019-06-26T00:31:10.137Z,22.40
2019-06-26T00:33:39.446Z,22.50
2019-06-26T00:36:08.599Z,22.40
2019-06-26T00:38:40.093Z,22.40
2019-06-26T00:41:08.915Z,22.30
2019-06-26T00:43:42.290Z,22.30
2019-06-26T00:46:08.784Z,22.20
2019-06-26T00:48:37.827Z,22.20
2019-06-26T00:51:06.907Z,22.20
2019-06-26T00:53:36.077Z,22.20
2019-06-26T00:56:05.247Z,22.20
2019-06-26T00:58:34.424Z,22.10
2019-06-26T01:01:03.993Z,22.10
2019-06-26T01:03:33.066Z,22.10
2019-06-26T01:06:02.236Z,22.10
2019-06-26T01:08:31.404Z,22.10
2019-06-26T01:11:00.477Z,22.00
2019-06-26T01:13:29.583Z,22.00
2019-06-26T01:15:58.768Z,22.00
2019-06-26T01:18:28.195Z,22.00
2019-06-26T01:20:57.282Z,22.00
2019-06-26T01:23:26.302Z,21.90
2019-06-26T01:25:55.791Z,21.90
2019-06-26T01:28:24.807Z,21.90
2019-06-26T01:30:53.863Z,21.90
2019-06-26T01:33:22.983Z,21.80
2019-06-26T01:35:52.119Z,21.80
2019-06-26T01:38:21.236Z,21.80
2019-06-26T01:40:50.331Z,21.80
2019-06-26T01:43:19.331Z,21.70
2019-06-26T01:45:48.346Z,21.70
2019-06-26T01:48:17.374Z,21.60
2019-06-26T01:50:46.420Z,21.60
2019-06-26T01:53:15.519Z,21.60
2019-06-26T01:55:44.606Z,21.50
2019-06-26T01:58:13.610Z,21.50
2019-06-26T02:00:42.744Z,21.50
2019-06-26T02:03:11.739Z,21.50
2019-06-26T02:05:41.114Z,21.50
2019-06-26T02:08:10.143Z,21.40
2019-06-26T02:10:39.210Z,21.40
2019-06-26T02:13:08.302Z,21.40
2019-06-26T02:15:37.755Z,21.40
2019-06-26T02:18:08.555Z,21.30
2019-06-26T02:20:37.549Z,21.20
2019-06-26T02:23:06.745Z,21.20
2019-06-26T02:25:35.811Z,21.20
2019-06-26T02:28:04.940Z,21.20
2019-06-26T02:30:33.960Z,21.10
2019-06-26T02:33:03.059Z,21.10
2019-06-26T02:35:32.844Z,21.10
2019-06-26T02:38:08.989Z,21.10
2019-06-26T02:40:38.637Z,21.10
2019-06-26T02:43:07.662Z,21.00
2019-06-26T02:45:36.682Z,21.00
2019-06-26T02:48:05.772Z,21.00
2019-06-26T02:50:35.208Z,21.00
2019-06-26T02:53:04.386Z,21.00
2019-06-26T02:55:33.569Z,21.00
2019-06-26T02:58:02.792Z,21.00
2019-06-26T03:00:31.771Z,21.00
2019-06-26T03:03:00.907Z,21.00
2019-06-26T03:05:30.034Z,21.00
2019-06-26T03:07:59.215Z,21.00
2019-06-26T03:10:28.285Z,21.00
2019-06-26T03:12:57.848Z,21.00
2019-06-26T03:15:26.960Z,21.00
2019-06-26T03:17:56.037Z,21.00
2019-06-26T03:20:28.048Z,21.00
2019-06-26T03:22:57.095Z,21.10
2019-06-26T03:25:26.238Z,21.10
2019-06-26T03:27:55.287Z,21.20
2019-06-26T03:30:24.458Z,21.20
2019-06-26T03:32:53.624Z,21.30
2019-06-26T03:35:22.669Z,21.30
2019-06-26T03:37:51.686Z,21.40
2019-06-26T03:40:20.826Z,21.50
2019-06-26T03:42:49.914Z,21.60
2019-06-26T03:45:25.761Z,21.70
2019-06-26T03:47:49.912Z,21.80
2019-06-26T03:50:20.221Z,21.90
2019-06-26T03:52:49.391Z,22.00
2019-06-26T03:55:18.558Z,22.00
2019-06-26T03:57:47.734Z,22.10
2019-06-26T04:00:19.304Z,22.20
2019-06-26T04:02:48.673Z,22.30
2019-06-26T04:05:17.704Z,22.40
2019-06-26T04:07:46.781Z,22.50
2019-06-26T04:10:16.381Z,22.70
2019-06-26T04:12:45.419Z,22.70
2019-06-26T04:15:14.815Z,23.00
2019-06-26T04:17:43.931Z,23.10
2019-06-26T04:20:13.129Z,23.20
2019-06-26T04:22:42.190Z,23.30
2019-06-26T04:25:11.369Z,23.50
2019-06-26T04:27:40.438Z,23.60
2019-06-26T04:30:11.119Z,23.70
2019-06-26T04:32:40.357Z,23.90
2019-06-26T04:35:09.684Z,24.10
2019-06-26T04:37:38.784Z,24.40
2019-06-26T04:40:08.599Z,24.60
2019-06-26T04:42:37.791Z,25.30
2019-06-26T04:45:08.067Z,25.80
2019-06-26T04:47:37.280Z,26.10
2019-06-26T04:50:06.876Z,26.40
2019-06-26T04:52:35.916Z,27.50
2019-06-26T04:55:05.453Z,28.70
2019-06-26T04:57:34.623Z,29.70
2019-06-26T05:00:04.283Z,30.70
2019-06-26T05:02:33.272Z,32.10
2019-06-26T05:05:02.366Z,33.20
2019-06-26T05:07:31.374Z,34.30
2019-06-26T05:10:00.457Z,35.30
2019-06-26T05:12:29.518Z,36.10
2019-06-26T05:14:58.639Z,36.80
2019-06-26T05:17:27.837Z,37.50
2019-06-26T05:19:56.949Z,38.10
2019-06-26T05:22:26.007Z,38.70
2019-06-26T05:24:55.031Z,39.20
2019-06-26T05:27:24.144Z,39.50
2019-06-26T05:29:54.523Z,39.90
2019-06-26T05:32:24.192Z,40.40
2019-06-26T05:34:53.223Z,40.80
2019-06-26T05:37:22.595Z,41.20
2019-06-26T05:39:54.653Z,41.60
2019-06-26T05:42:22.670Z,41.80
2019-06-26T05:44:51.798Z,42.10
2019-06-26T05:47:22.122Z,42.40
2019-06-26T05:49:51.276Z,42.60
2019-06-26T05:52:20.339Z,42.80
2019-06-26T05:54:49.717Z,43.00
2019-06-26T05:57:18.876Z,43.30
2019-06-26T05:59:48.068Z,43.50
2019-06-26T06:02:17.055Z,43.70
2019-06-26T06:04:46.146Z,44.00
2019-06-26T06:07:15.138Z,44.10
2019-06-26T06:09:44.258Z,44.30
2019-06-26T06:12:13.287Z,44.60
2019-06-26T06:14:42.431Z,44.80
2019-06-26T06:17:11.551Z,44.90
2019-06-26T06:19:42.744Z,45.10
2019-06-26T06:22:12.830Z,45.10
2019-06-26T06:24:41.865Z,45.20
2019-06-26T06:27:10.854Z,45.10
2019-06-26T06:29:39.889Z,45.20
2019-06-26T06:32:09.018Z,45.40
2019-06-26T06:34:38.111Z,45.50
2019-06-26T06:37:07.115Z,45.40
2019-06-26T06:39:36.311Z,45.60
2019-06-26T06:42:05.552Z,45.50
2019-06-26T06:44:34.796Z,45.60
2019-06-26T06:47:05.581Z,45.70
2019-06-26T06:49:34.764Z,45.80
2019-06-26T06:52:04.425Z,45.80
2019-06-26T06:54:33.579Z,45.60
2019-06-26T06:57:02.679Z,45.50
2019-06-26T06:59:31.822Z,45.50
2019-06-26T07:02:00.985Z,45.40
2019-06-26T07:04:30.174Z,45.30
2019-06-26T07:06:59.295Z,45.00
2019-06-26T07:09:28.337Z,44.80
2019-06-26T07:11:57.568Z,44.70
2019-06-26T07:14:26.776Z,44.60
2019-06-26T07:16:55.932Z,44.40
2019-06-26T07:19:24.970Z,44.10
2019-06-26T07:21:54.191Z,43.90
2019-06-26T07:24:23.244Z,43.60
2019-06-26T07:26:52.449Z,43.10
2019-06-26T07:29:21.579Z,42.10
2019-06-26T07:31:50.681Z,41.00
2019-06-26T07:34:19.769Z,40.00
2019-06-26T07:36:49.351Z,39.10
2019-06-26T07:39:18.400Z,38.30
2019-06-26T07:41:47.447Z,37.60
2019-06-26T07:44:16.962Z,37.00
2019-06-26T07:46:46.082Z,36.50
2019-06-26T07:49:15.531Z,36.10
2019-06-26T07:51:44.700Z,35.70
2019-06-26T07:54:13.795Z,35.50
2019-06-26T07:56:42.813Z,35.30
2019-06-26T07:59:12.258Z,35.10
2019-06-26T08:01:41.836Z,35.00
2019-06-26T08:04:11.026Z,34.90
2019-06-26T08:06:40.192Z,34.80
2019-06-26T08:09:09.388Z,34.60
2019-06-26T08:11:38.522Z,34.50
2019-06-26T08:14:07.659Z,34.40
2019-06-26T08:16:36.818Z,34.40
2019-06-26T08:19:06.016Z,34.30
2019-06-26T08:21:35.181Z,34.30
2019-06-26T08:24:04.684Z,34.30
2019-06-26T08:26:33.907Z,34.20
2019-06-26T08:29:03.334Z,34.20
2019-06-26T08:31:32.362Z,34.20
2019-06-26T08:34:01.443Z,34.10
2019-06-26T08:36:30.473Z,34.20
2019-06-26T08:38:59.636Z,34.20
2019-06-26T08:41:28.738Z,34.20
2019-06-26T08:43:57.851Z,34.20
2019-06-26T08:46:26.891Z,34.20
2019-06-26T08:48:56.077Z,34.10
2019-06-26T08:51:25.207Z,34.10
2019-06-26T08:53:54.388Z,34.20
2019-06-26T08:56:23.763Z,34.20
2019-06-26T08:58:52.969Z,34.20
2019-06-26T09:01:22.123Z,34.30
2019-06-26T09:03:51.212Z,34.30
2019-06-26T09:06:20.382Z,34.30
2019-06-26T09:08:49.454Z,34.30
2019-06-26T09:11:18.511Z,34.30
2019-06-26T09:13:47.621Z,34.40
2019-06-26T09:16:16.719Z,34.40
2019-06-26T09:18:45.762Z,34.50
2019-06-26T09:21:14.900Z,34.50
2019-06-26T09:23:44.141Z,34.50
2019-06-26T09:26:13.324Z,34.50
2019-06-26T09:28:42.329Z,34.50
2019-06-26T09:31:11.335Z,34.50
2019-06-26T09:33:40.471Z,34.60
2019-06-26T09:36:09.613Z,34.60
2019-06-26T09:38:38.622Z,34.70
2019-06-26T09:41:07.780Z,34.80
2019-06-26T09:43:36.782Z,34.80
2019-06-26T09:46:05.954Z,34.90
2019-06-26T09:48:51.121Z,34.90
2019-06-26T09:51:05.800Z,35.00
2019-06-26T09:53:46.483Z,35.10
2019-06-26T09:56:05.767Z,35.10
2019-06-26T09:58:34.933Z,35.10
2019-06-26T10:01:04.392Z,35.10
2019-06-26T10:03:34.593Z,35.10
2019-06-26T10:06:03.688Z,35.10
2019-06-26T10:08:32.914Z,35.10
2019-06-26T10:11:02.075Z,35.10
2019-06-26T10:13:31.168Z,35.10
2019-06-26T10:16:00.859Z,35.10
2019-06-26T10:18:29.970Z,35.00
2019-06-26T10:20:59.160Z,35.10
2019-06-26T10:23:28.275Z,35.10
2019-06-26T10:25:57.377Z,35.10
2019-06-26T10:28:26.638Z,35.20
2019-06-26T10:30:56.035Z,35.30
2019-06-26T10:33:25.148Z,35.30
2019-06-26T10:35:54.338Z,35.40
2019-06-26T10:38:23.525Z,35.40
2019-06-26T10:40:52.650Z,35.40
2019-06-26T10:43:21.848Z,35.50
2019-06-26T10:45:50.986Z,35.60
2019-06-26T10:48:20.472Z,35.50
2019-06-26T10:50:57.141Z,35.60
2019-06-26T10:53:20.291Z,35.50
2019-06-26T10:55:49.359Z,35.60
2019-06-26T10:58:18.520Z,35.60
2019-06-26T11:00:47.603Z,35.70
2019-06-26T11:03:16.887Z,35.70
2019-06-26T11:05:45.992Z,35.80
2019-06-26T11:08:15.091Z,35.80
2019-06-26T11:10:44.242Z,35.80
2019-06-26T11:13:13.620Z,35.80
2019-06-26T11:15:42.815Z,35.80
2019-06-26T11:18:11.922Z,35.80
2019-06-26T11:20:41.552Z,35.90
2019-06-26T11:23:10.607Z,35.90
2019-06-26T11:25:39.789Z,36.00
2019-06-26T11:28:08.974Z,36.00
2019-06-26T11:30:38.084Z,36.00
2019-06-26T11:33:07.299Z,36.00
2019-06-26T11:35:36.348Z,36.00
2019-06-26T11:38:05.588Z,36.10
2019-06-26T11:40:34.615Z,36.00
2019-06-26T11:43:03.737Z,36.10
2019-06-26T11:45:33.115Z,36.10
2019-06-26T11:48:02.693Z,36.10
2019-06-26T11:50:31.893Z,36.10
2019-06-26T11:53:01.151Z,36.20
2019-06-26T11:55:30.383Z,36.20
2019-06-26T11:57:59.482Z,36.20
2019-06-26T12:00:28.962Z,36.20
2019-06-26T12:02:58.143Z,36.20
2019-06-26T12:05:27.231Z,36.30
2019-06-26T12:07:56.307Z,36.30
2019-06-26T12:10:25.778Z,36.40
2019-06-26T12:12:55.620Z,36.40
2019-06-26T12:15:26.181Z,36.40
2019-06-26T12:17:55.349Z,36.40
2019-06-26T12:20:24.496Z,36.50
2019-06-26T12:22:53.677Z,36.50
2019-06-26T12:25:22.866Z,36.50
2019-06-26T12:27:51.958Z,36.50
2019-06-26T12:30:21.632Z,36.60
2019-06-26T12:33:02.336Z,36.60
2019-06-26T12:35:21.926Z,36.50
2019-06-26T12:37:51.139Z,36.60
2019-06-26T12:40:20.586Z,36.60
2019-06-26T12:42:49.884Z,36.60
2019-06-26T12:45:19.044Z,36.60
2019-06-26T12:47:48.131Z,36.60
2019-06-26T12:50:34.158Z,36.70
2019-06-26T12:52:50.257Z,36.70
2019-06-26T12:55:19.522Z,36.70
2019-06-26T12:57:48.525Z,36.70
2019-06-26T13:00:18.101Z,36.80
2019-06-26T13:02:47.181Z,36.80
2019-06-26T13:05:16.792Z,36.80
2019-06-26T13:07:45.957Z,36.80
2019-06-26T13:10:15.407Z,36.90
2019-06-26T13:12:46.061Z,36.90
2019-06-26T13:15:15.929Z,37.00
2019-06-26T13:17:45.328Z,37.00
2019-06-26T13:20:14.498Z,37.00
2019-06-26T13:22:43.682Z,37.00
2019-06-26T13:25:15.861Z,37.10
2019-06-26T13:27:44.993Z,37.00
2019-06-26T13:30:15.138Z,37.10
2019-06-26T13:32:44.218Z,37.10
2019-06-26T13:35:13.371Z,37.10
2019-06-26T13:37:42.499Z,37.20
2019-06-26T13:40:12.677Z,37.20
2019-06-26T13:42:41.721Z,37.20
2019-06-26T13:45:11.038Z,37.20
2019-06-26T13:47:40.112Z,37.20
2019-06-26T13:50:09.767Z,37.30
2019-06-26T13:52:39.867Z,37.30
2019-06-26T13:55:10.043Z,37.40
2019-06-26T13:57:39.113Z,37.40
2019-06-26T14:00:08.391Z,37.30
2019-06-26T14:02:37.421Z,37.30
2019-06-26T14:05:06.990Z,37.30
2019-06-26T14:07:36.107Z,37.30
2019-06-26T14:10:05.784Z,37.20
2019-06-26T14:12:35.256Z,37.30
2019-06-26T14:15:04.539Z,37.30
2019-06-26T14:17:33.933Z,37.30
2019-06-26T14:20:03.136Z,37.40
2019-06-26T14:22:32.229Z,37.50
2019-06-26T14:25:01.410Z,37.50
2019-06-26T14:27:30.651Z,37.50
2019-06-26T14:29:59.822Z,37.50
2019-06-26T14:32:29.013Z,37.40
2019-06-26T14:34:58.055Z,37.50
2019-06-26T14:37:27.167Z,37.50
2019-06-26T14:39:56.183Z,37.60
2019-06-26T14:42:25.289Z,37.60
2019-06-26T14:44:54.508Z,37.50
2019-06-26T14:47:23.498Z,37.60
2019-06-26T14:49:52.542Z,37.60
2019-06-26T14:52:21.602Z,37.60
2019-06-26T14:54:50.610Z,37.60
2019-06-26T14:57:19.690Z,37.60
2019-06-26T14:59:48.705Z,37.60
2019-06-26T15:02:18.895Z,37.60
2019-06-26T15:04:48.010Z,37.60
2019-06-26T15:07:17.078Z,37.60
2019-06-26T15:09:46.266Z,37.50
2019-06-26T15:12:15.335Z,37.50
2019-06-26T15:14:44.448Z,37.50
2019-06-26T15:17:13.657Z,37.50
2019-06-26T15:19:42.819Z,37.60
2019-06-26T15:22:11.922Z,37.60
2019-06-26T15:24:40.962Z,37.70
2019-06-26T15:27:10.052Z,37.70
2019-06-26T15:29:39.191Z,37.70
2019-06-26T15:32:08.311Z,37.70
2019-06-26T15:34:37.443Z,37.80
2019-06-26T15:37:06.552Z,37.80
2019-06-26T15:39:35.601Z,37.80
2019-06-26T15:42:04.743Z,37.80
2019-06-26T15:44:33.827Z,37.80
2019-06-26T15:47:02.898Z,37.80
2019-06-26T15:49:31.951Z,37.80
2019-06-26T15:52:14.059Z,37.70
2019-06-26T15:54:32.115Z,37.60
2019-06-26T15:57:01.232Z,37.50
2019-06-26T15:59:31.237Z,37.40
2019-06-26T16:02:00.412Z,37.30
2019-06-26T16:04:29.455Z,37.20
2019-06-26T16:06:58.517Z,37.20
2019-06-26T16:09:27.851Z,37.10
2019-06-26T16:11:58.985Z,37.10
2019-06-26T16:14:28.018Z,37.10
2019-06-26T16:16:59.503Z,37.00
2019-06-26T16:19:28.564Z,37.00
2019-06-26T16:21:57.783Z,37.00
2019-06-26T16:24:30.065Z,37.00
2019-06-26T16:26:58.092Z,36.90
2019-06-26T16:29:27.451Z,36.80
2019-06-26T16:31:56.698Z,36.80
2019-06-26T16:34:25.730Z,36.80
2019-06-26T16:36:54.838Z,36.80
2019-06-26T16:39:24.207Z,36.70
2019-06-26T16:41:53.398Z,36.70
2019-06-26T16:44:22.465Z,36.70
2019-06-26T16:46:51.474Z,36.60
2019-06-26T16:49:20.639Z,36.60
2019-06-26T16:51:49.823Z,36.50
2019-06-26T16:54:18.860Z,36.50
2019-06-26T16:56:47.871Z,36.50
2019-06-26T16:59:16.959Z,36.50
2019-06-26T17:01:45.954Z,36.50
2019-06-26T17:04:15.088Z,36.60
2019-06-26T17:06:44.168Z,36.60
2019-06-26T17:09:13.325Z,36.60
2019-06-26T17:11:42.355Z,36.50
2019-06-26T17:14:11.447Z,36.40
2019-06-26T17:16:40.556Z,36.30
2019-06-26T17:19:09.608Z,36.20
2019-06-26T17:21:38.642Z,36.10
2019-06-26T17:24:08.088Z,36.00
2019-06-26T17:26:37.130Z,36.00
2019-06-26T17:29:06.121Z,35.90
2019-06-26T17:31:35.160Z,35.80
2019-06-26T17:34:04.467Z,35.70
2019-06-26T17:36:33.583Z,35.70
2019-06-26T17:39:02.693Z,35.60
2019-06-26T17:41:31.834Z,35.50
2019-06-26T17:44:01.314Z,35.50
2019-06-26T17:46:31.428Z,35.40
2019-06-26T17:49:00.451Z,35.30
2019-06-26T17:51:29.479Z,35.20
2019-06-26T17:53:58.587Z,35.20
2019-06-26T17:56:27.704Z,35.10
2019-06-26T17:58:56.797Z,35.10
2019-06-26T18:01:25.943Z,35.00
2019-06-26T18:03:55.061Z,34.80
2019-06-26T18:06:24.215Z,34.80
2019-06-26T18:08:53.247Z,34.70
2019-06-26T18:11:22.687Z,34.60
2019-06-26T18:13:51.819Z,34.50
2019-06-26T18:16:20.884Z,34.40
2019-06-26T18:18:49.977Z,34.40
2019-06-26T18:21:19.471Z,34.20
2019-06-26T18:23:48.535Z,34.20
2019-06-26T18:26:17.601Z,34.10
2019-06-26T18:28:46.586Z,34.00
2019-06-26T18:31:15.785Z,33.90
2019-06-26T18:33:45.099Z,33.80
2019-06-26T18:36:14.269Z,33.70
2019-06-26T18:38:43.254Z,33.60
2019-06-26T18:41:12.487Z,33.40
2019-06-26T18:43:41.592Z,33.30
2019-06-26T18:46:10.647Z,33.20
2019-06-26T18:48:39.767Z,33.10
2019-06-26T18:51:08.867Z,33.00
2019-06-26T18:53:52.798Z,32.80
2019-06-26T18:56:08.635Z,32.70
2019-06-26T18:58:38.091Z,32.50
2019-06-26T19:01:07.083Z,32.40
2019-06-26T19:03:36.234Z,32.30
2019-06-26T19:06:05.339Z,32.20
2019-06-26T19:08:34.497Z,32.10
2019-06-26T19:11:03.566Z,31.90
2019-06-26T19:13:32.591Z,31.80
2019-06-26T19:16:04.459Z,31.70
2019-06-26T19:18:32.417Z,31.60
2019-06-26T19:21:01.419Z,31.50
2019-06-26T19:23:30.465Z,31.40
2019-06-26T19:25:59.523Z,31.30
2019-06-26T19:28:28.709Z,31.20
2019-06-26T19:30:57.704Z,31.10
2019-06-26T19:33:26.834Z,31.00
2019-06-26T19:35:55.956Z,30.90
2019-06-26T19:38:25.732Z,30.90
2019-06-26T19:40:55.140Z,30.80
2019-06-26T19:43:24.342Z,30.70
2019-06-26T19:45:53.461Z,30.60
2019-06-26T19:48:22.653Z,30.50
2019-06-26T19:50:51.745Z,30.40
2019-06-26T19:53:21.243Z,30.30
2019-06-26T19:55:50.361Z,30.30
2019-06-26T19:58:21.554Z,30.10
2019-06-26T20:00:50.351Z,30.10
2019-06-26T20:03:19.643Z,30.00
2019-06-26T20:05:48.685Z,29.90
2019-06-26T20:08:17.872Z,29.80
2019-06-26T20:10:47.419Z,29.70
2019-06-26T20:13:16.515Z,29.60
2019-06-26T20:15:45.530Z,29.40
2019-06-26T20:18:14.756Z,29.30
2019-06-26T20:20:43.867Z,29.20
2019-06-26T20:23:13.010Z,29.20
2019-06-26T20:25:42.150Z,29.10
2019-06-26T20:28:11.263Z,29.00
2019-06-26T20:30:40.412Z,28.90
2019-06-26T20:33:09.532Z,28.80
2019-06-26T20:35:38.993Z,28.70
2019-06-26T20:38:08.145Z,28.60
2019-06-26T20:40:37.298Z,28.60
2019-06-26T20:43:06.571Z,28.50
2019-06-26T20:45:35.559Z,28.40
2019-06-26T20:48:04.643Z,28.30
2019-06-26T20:50:33.818Z,28.30
2019-06-26T20:53:02.899Z,28.20
2019-06-26T20:55:31.975Z,28.20
2019-06-26T20:58:01.118Z,28.10
2019-06-26T21:00:30.219Z,28.10
2019-06-26T21:02:59.326Z,28.00
2019-06-26T21:05:29.081Z,28.00
2019-06-26T21:07:58.957Z,27.90
2019-06-26T21:10:28.572Z,27.90
2019-06-26T21:12:57.599Z,27.90
2019-06-26T21:15:26.656Z,27.80
2019-06-26T21:17:55.670Z,27.80
2019-06-26T21:20:24.770Z,27.80
2019-06-26T21:22:53.903Z,27.80
2019-06-26T21:25:22.911Z,27.70
2019-06-26T21:27:52.007Z,27.70
2019-06-26T21:30:21.491Z,27.60
2019-06-26T21:32:50.655Z,27.60
2019-06-26T21:35:19.991Z,27.60
2019-06-26T21:37:49.036Z,27.50
2019-06-26T21:40:18.317Z,27.50
2019-06-26T21:42:47.323Z,27.40
2019-06-26T21:45:20.179Z,27.30
2019-06-26T21:47:48.786Z,27.30
2019-06-26T21:50:17.962Z,27.20
2019-06-26T21:52:46.975Z,27.20
2019-06-26T21:55:16.162Z,27.10
2019-06-26T21:57:45.400Z,27.10
2019-06-26T22:00:15.521Z,27.00
2019-06-26T22:02:44.945Z,26.90
2019-06-26T22:05:15.193Z,26.90
2019-06-26T22:07:44.524Z,26.80
2019-06-26T22:10:13.832Z,26.80
2019-06-26T22:12:42.940Z,26.70
2019-06-26T22:15:12.940Z,26.70
2019-06-26T22:17:42.089Z,26.60
2019-06-26T22:20:12.781Z,26.60
2019-06-26T22:22:42.350Z,26.50
2019-06-26T22:25:12.026Z,26.50
2019-06-26T22:27:41.586Z,26.40
2019-06-26T22:30:11.485Z,26.30
2019-06-26T22:32:40.615Z,26.30
2019-06-26T22:35:10.200Z,26.20
2019-06-26T22:37:39.263Z,26.20
2019-06-26T22:40:08.491Z,26.10
2019-06-26T22:42:37.662Z,26.10
2019-06-26T22:45:07.149Z,26.00
2019-06-26T22:47:36.304Z,26.00
2019-06-26T22:50:06.155Z,25.90
2019-06-26T22:52:54.439Z,25.90
2019-06-26T22:55:23.643Z,25.80
2019-06-26T22:57:53.156Z,25.90
2019-06-26T23:00:22.622Z,25.90
2019-06-26T23:02:52.463Z,25.90
2019-06-26T23:05:21.599Z,25.90
2019-06-26T23:07:50.728Z,26.00
2019-06-26T23:10:20.124Z,26.00
2019-06-26T23:12:49.228Z,26.10
2019-06-26T23:15:18.856Z,26.10
2019-06-26T23:17:48.033Z,26.20
2019-06-26T23:20:17.243Z,26.20
2019-06-26T23:22:46.424Z,26.20
2019-06-26T23:25:16.175Z,26.20
2019-06-26T23:27:45.365Z,26.20
2019-06-26T23:30:20.244Z,26.20
2019-06-26T23:32:49.594Z,26.20
2019-06-26T23:35:18.720Z,26.20
2019-06-26T23:37:47.849Z,26.10
2019-06-26T23:40:17.228Z,26.20
2019-06-26T23:42:46.412Z,26.10
2019-06-26T23:45:15.597Z,26.10
2019-06-26T23:47:44.699Z,26.10
2019-06-26T23:50:13.885Z,26.10
2019-06-26T23:52:43.020Z,26.10
2019-06-26T23:55:12.204Z,26.00
2019-06-26T23:57:57.591Z,26.00
